sensor_id;sensor_type;location;lat;lon;timestamp;temperature;humidity
32217;DHT22;67098;51.140;4.088;2023-04-01T00:01:06;10.90;99.90
32217;DHT22;67098;51.140;4.088;2023-04-01T00:03:33;10.90;99.90
32217;DHT22;67098;51.140;4.088;2023-04-01T00:06:00;11.00;99.90
32217;DHT22;67098;51.140;4.088;2023-04-01T00:08:26;11.00;99.90
32217;DHT22;67098;51.140;4.088;2023-04-01T00:10:53;11.00;99.90
32217;DHT22;67098;51.140;4.088;2023-04-01T00:13:19;11.00;99.90
32217;DHT22;67098;51.140;4.088;2023-04-01T00:15:45;11.10;99.90
32217;DHT22;67098;51.140;4.088;2023-04-01T00:18:11;11.20;99.90
32217;DHT22;67098;51.140;4.088;2023-04-01T00:20:37;11.20;99.90
32217;DHT22;67098;51.140;4.088;2023-04-01T00:23:03;11.10;99.90
32217;DHT22;67098;51.140;4.088;2023-04-01T00:25:30;11.10;99.90
32217;DHT22;67098;51.140;4.088;2023-04-01T00:27:56;11.10;99.90
32217;DHT22;67098;51.140;4.088;2023-04-01T00:30:22;11.10;99.90
32217;DHT22;67098;51.140;4.088;2023-04-01T00:32:52;11.10;99.90
32217;DHT22;67098;51.140;4.088;2023-04-01T00:35:18;11.10;99.90
32217;DHT22;67098;51.140;4.088;2023-04-01T00:37:44;11.20;99.90
32217;DHT22;67098;51.140;4.088;2023-04-01T00:42:49;11.10;99.90
32217;DHT22;67098;51.140;4.088;2023-04-01T00:47:54;11.00;99.90
32217;DHT22;67098;51.140;4.088;2023-04-01T00:50:21;10.90;99.90
32217;DHT22;67098;51.140;4.088;2023-04-01T00:52:47;10.90;99.90
32217;DHT22;67098;51.140;4.088;2023-04-01T00:55:14;10.90;99.90
32217;DHT22;67098;51.140;4.088;2023-04-01T00:57:43;10.90;99.90
32217;DHT22;67098;51.140;4.088;2023-04-01T01:00:11;10.90;99.90
32217;DHT22;67098;51.140;4.088;2023-04-01T01:02:41;10.90;99.90
32217;DHT22;67098;51.140;4.088;2023-04-01T01:05:10;11.00;99.90
32217;DHT22;67098;51.140;4.088;2023-04-01T01:07:39;11.00;99.90
32217;DHT22;67098;51.140;4.088;2023-04-01T01:13:11;10.90;99.90
32217;DHT22;67098;51.140;4.088;2023-04-01T01:23:46;10.90;99.90
32217;DHT22;67098;51.140;4.088;2023-04-01T01:31:45;10.90;99.90
32217;DHT22;67098;51.140;4.088;2023-04-01T01:34:36;10.80;99.90
32217;DHT22;67098;51.140;4.088;2023-04-01T01:37:15;10.80;99.90
32217;DHT22;67098;51.140;4.088;2023-04-01T01:39:43;10.80;99.90
32217;DHT22;67098;51.140;4.088;2023-04-01T01:42:13;10.60;99.90
32217;DHT22;67098;51.140;4.088;2023-04-01T01:44:42;10.70;99.90
32217;DHT22;67098;51.140;4.088;2023-04-01T01:47:09;10.60;99.90
32217;DHT22;67098;51.140;4.088;2023-04-01T01:49:36;10.70;99.90
32217;DHT22;67098;51.140;4.088;2023-04-01T01:52:03;10.70;99.90
32217;DHT22;67098;51.140;4.088;2023-04-01T01:54:29;10.70;99.90
32217;DHT22;67098;51.140;4.088;2023-04-01T01:57:13;10.70;99.90
32217;DHT22;67098;51.140;4.088;2023-04-01T01:59:41;10.70;99.90
32217;DHT22;67098;51.140;4.088;2023-04-01T02:02:08;10.70;99.90
32217;DHT22;67098;51.140;4.088;2023-04-01T02:04:39;10.60;99.90
32217;DHT22;67098;51.140;4.088;2023-04-01T02:07:10;10.60;99.90
32217;DHT22;67098;51.140;4.088;2023-04-01T02:09:38;10.50;99.90
32217;DHT22;67098;51.140;4.088;2023-04-01T02:12:07;10.50;99.90
32217;DHT22;67098;51.140;4.088;2023-04-01T02:14:43;10.50;99.90
32217;DHT22;67098;51.140;4.088;2023-04-01T02:17:19;10.40;99.90
32217;DHT22;67098;51.140;4.088;2023-04-01T02:22:23;10.50;99.90
32217;DHT22;67098;51.140;4.088;2023-04-01T02:24:56;10.60;99.90
32217;DHT22;67098;51.140;4.088;2023-04-01T02:27:23;10.50;99.90
32217;DHT22;67098;51.140;4.088;2023-04-01T02:29:50;10.50;99.90
32217;DHT22;67098;51.140;4.088;2023-04-01T02:32:17;10.50;99.90
32217;DHT22;67098;51.140;4.088;2023-04-01T02:34:45;10.60;99.90
32217;DHT22;67098;51.140;4.088;2023-04-01T02:37:12;10.60;99.90
32217;DHT22;67098;51.140;4.088;2023-04-01T02:39:38;10.50;99.90
32217;DHT22;67098;51.140;4.088;2023-04-01T02:42:04;10.50;99.90
32217;DHT22;67098;51.140;4.088;2023-04-01T02:44:30;10.50;99.90
32217;DHT22;67098;51.140;4.088;2023-04-01T02:46:55;10.40;99.90
32217;DHT22;67098;51.140;4.088;2023-04-01T02:49:21;10.50;99.90
32217;DHT22;67098;51.140;4.088;2023-04-01T02:51:46;10.40;99.90
32217;DHT22;67098;51.140;4.088;2023-04-01T02:54:12;10.40;99.90
32217;DHT22;67098;51.140;4.088;2023-04-01T02:56:38;10.40;99.90
32217;DHT22;67098;51.140;4.088;2023-04-01T02:59:04;10.50;99.90
32217;DHT22;67098;51.140;4.088;2023-04-01T03:01:30;10.50;99.90
32217;DHT22;67098;51.140;4.088;2023-04-01T03:03:55;10.50;99.90
32217;DHT22;67098;51.140;4.088;2023-04-01T03:06:21;10.60;99.90
32217;DHT22;67098;51.140;4.088;2023-04-01T03:08:47;10.60;99.90
32217;DHT22;67098;51.140;4.088;2023-04-01T03:11:13;10.50;99.90
32217;DHT22;67098;51.140;4.088;2023-04-01T03:13:39;10.40;99.90
32217;DHT22;67098;51.140;4.088;2023-04-01T03:16:05;10.40;99.90
32217;DHT22;67098;51.140;4.088;2023-04-01T03:18:30;10.30;99.90
32217;DHT22;67098;51.140;4.088;2023-04-01T03:20:56;10.40;99.90
32217;DHT22;67098;51.140;4.088;2023-04-01T03:23:22;10.40;99.90
32217;DHT22;67098;51.140;4.088;2023-04-01T03:25:49;10.40;99.90
32217;DHT22;67098;51.140;4.088;2023-04-01T03:28:15;10.40;99.90
32217;DHT22;67098;51.140;4.088;2023-04-01T03:30:41;10.40;99.90
32217;DHT22;67098;51.140;4.088;2023-04-01T03:33:06;10.40;99.90
32217;DHT22;67098;51.140;4.088;2023-04-01T03:35:32;10.30;99.90
32217;DHT22;67098;51.140;4.088;2023-04-01T03:37:58;10.30;99.90
32217;DHT22;67098;51.140;4.088;2023-04-01T03:40:24;10.20;99.90
32217;DHT22;67098;51.140;4.088;2023-04-01T03:42:51;10.20;99.90
32217;DHT22;67098;51.140;4.088;2023-04-01T03:45:17;10.20;99.90
32217;DHT22;67098;51.140;4.088;2023-04-01T03:47:43;10.30;99.90
32217;DHT22;67098;51.140;4.088;2023-04-01T03:50:09;10.40;99.90
32217;DHT22;67098;51.140;4.088;2023-04-01T03:52:35;10.40;99.90
32217;DHT22;67098;51.140;4.088;2023-04-01T03:55:01;10.40;99.90
32217;DHT22;67098;51.140;4.088;2023-04-01T03:57:27;10.40;99.90
32217;DHT22;67098;51.140;4.088;2023-04-01T03:59:53;10.40;99.90
32217;DHT22;67098;51.140;4.088;2023-04-01T04:02:19;10.40;99.90
32217;DHT22;67098;51.140;4.088;2023-04-01T04:04:45;10.50;99.90
32217;DHT22;67098;51.140;4.088;2023-04-01T04:07:12;10.40;99.90
32217;DHT22;67098;51.140;4.088;2023-04-01T04:09:37;10.30;99.90
32217;DHT22;67098;51.140;4.088;2023-04-01T04:12:03;10.40;99.90
32217;DHT22;67098;51.140;4.088;2023-04-01T04:14:31;10.20;99.90
32217;DHT22;67098;51.140;4.088;2023-04-01T04:16:57;10.30;99.90
32217;DHT22;67098;51.140;4.088;2023-04-01T04:19:22;10.30;99.90
32217;DHT22;67098;51.140;4.088;2023-04-01T04:21:48;10.40;99.90
32217;DHT22;67098;51.140;4.088;2023-04-01T04:24:14;10.30;99.90
32217;DHT22;67098;51.140;4.088;2023-04-01T04:26:41;10.20;99.90
32217;DHT22;67098;51.140;4.088;2023-04-01T04:29:06;10.20;99.90
32217;DHT22;67098;51.140;4.088;2023-04-01T04:31:32;10.10;99.90
32217;DHT22;67098;51.140;4.088;2023-04-01T04:33:59;10.20;99.90
32217;DHT22;67098;51.140;4.088;2023-04-01T04:36:26;10.20;99.90
32217;DHT22;67098;51.140;4.088;2023-04-01T04:38:52;10.20;99.90
32217;DHT22;67098;51.140;4.088;2023-04-01T04:41:18;10.20;99.90
32217;DHT22;67098;51.140;4.088;2023-04-01T04:43:54;10.20;99.90
32217;DHT22;67098;51.140;4.088;2023-04-01T04:46:21;10.30;99.90
32217;DHT22;67098;51.140;4.088;2023-04-01T04:48:47;10.20;99.90
32217;DHT22;67098;51.140;4.088;2023-04-01T04:51:17;10.20;99.90
32217;DHT22;67098;51.140;4.088;2023-04-01T04:53:44;10.20;99.90
32217;DHT22;67098;51.140;4.088;2023-04-01T04:56:10;10.20;99.90
32217;DHT22;67098;51.140;4.088;2023-04-01T04:58:37;10.20;99.90
32217;DHT22;67098;51.140;4.088;2023-04-01T05:01:11;10.30;99.90
32217;DHT22;67098;51.140;4.088;2023-04-01T05:03:37;10.40;99.90
32217;DHT22;67098;51.140;4.088;2023-04-01T05:06:03;10.30;99.90
32217;DHT22;67098;51.140;4.088;2023-04-01T05:08:29;10.20;99.90
32217;DHT22;67098;51.140;4.088;2023-04-01T05:10:55;10.20;99.90
32217;DHT22;67098;51.140;4.088;2023-04-01T05:13:21;10.20;99.90
32217;DHT22;67098;51.140;4.088;2023-04-01T05:15:46;10.20;99.90
32217;DHT22;67098;51.140;4.088;2023-04-01T05:18:12;10.20;99.90
32217;DHT22;67098;51.140;4.088;2023-04-01T05:20:37;10.30;99.90
32217;DHT22;67098;51.140;4.088;2023-04-01T05:23:03;10.20;99.90
32217;DHT22;67098;51.140;4.088;2023-04-01T05:25:29;10.10;99.90
32217;DHT22;67098;51.140;4.088;2023-04-01T05:27:54;10.10;99.90
32217;DHT22;67098;51.140;4.088;2023-04-01T05:30:21;10.10;99.90
32217;DHT22;67098;51.140;4.088;2023-04-01T05:32:46;10.10;99.90
32217;DHT22;67098;51.140;4.088;2023-04-01T05:35:12;10.00;99.90
32217;DHT22;67098;51.140;4.088;2023-04-01T05:37:37;10.10;99.90
32217;DHT22;67098;51.140;4.088;2023-04-01T05:40:03;10.00;99.90
32217;DHT22;67098;51.140;4.088;2023-04-01T05:42:30;10.10;99.90
32217;DHT22;67098;51.140;4.088;2023-04-01T05:44:55;10.10;99.90
32217;DHT22;67098;51.140;4.088;2023-04-01T05:47:22;10.10;99.90
32217;DHT22;67098;51.140;4.088;2023-04-01T05:49:47;10.00;99.90
32217;DHT22;67098;51.140;4.088;2023-04-01T05:52:13;10.00;99.90
32217;DHT22;67098;51.140;4.088;2023-04-01T05:54:39;10.10;99.90
32217;DHT22;67098;51.140;4.088;2023-04-01T05:57:04;10.10;99.90
32217;DHT22;67098;51.140;4.088;2023-04-01T05:59:30;10.10;99.90
32217;DHT22;67098;51.140;4.088;2023-04-01T06:01:57;10.20;99.90
32217;DHT22;67098;51.140;4.088;2023-04-01T06:04:23;10.30;99.90
32217;DHT22;67098;51.140;4.088;2023-04-01T06:06:49;10.20;99.90
32217;DHT22;67098;51.140;4.088;2023-04-01T06:09:19;10.10;99.90
32217;DHT22;67098;51.140;4.088;2023-04-01T06:22:51;10.20;99.90
32217;DHT22;67098;51.140;4.088;2023-04-01T06:36:03;10.10;99.90
32217;DHT22;67098;51.140;4.088;2023-04-01T06:38:49;10.10;99.90
32217;DHT22;67098;51.140;4.088;2023-04-01T06:46:50;10.10;99.90
32217;DHT22;67098;51.140;4.088;2023-04-01T06:54:37;10.10;99.90
32217;DHT22;67098;51.140;4.088;2023-04-01T06:59:55;10.40;99.90
32217;DHT22;67098;51.140;4.088;2023-04-01T07:04:59;10.80;99.90
32217;DHT22;67098;51.140;4.088;2023-04-01T07:07:49;11.00;99.90
32217;DHT22;67098;51.140;4.088;2023-04-01T07:10:22;11.10;99.90
32217;DHT22;67098;51.140;4.088;2023-04-01T07:12:53;11.20;99.90
32217;DHT22;67098;51.140;4.088;2023-04-01T07:15:21;11.10;99.90
32217;DHT22;67098;51.140;4.088;2023-04-01T07:17:55;11.20;99.90
32217;DHT22;67098;51.140;4.088;2023-04-01T07:20:32;11.30;99.90
32217;DHT22;67098;51.140;4.088;2023-04-01T07:23:00;11.30;99.90
32217;DHT22;67098;51.140;4.088;2023-04-01T07:25:34;11.20;99.90
32217;DHT22;67098;51.140;4.088;2023-04-01T07:28:15;11.20;99.90
32217;DHT22;67098;51.140;4.088;2023-04-01T07:39:00;11.40;99.90
32217;DHT22;67098;51.140;4.088;2023-04-01T07:44:46;11.40;99.90
32217;DHT22;67098;51.140;4.088;2023-04-01T07:49:54;11.40;99.90
32217;DHT22;67098;51.140;4.088;2023-04-01T07:55:29;11.40;99.90
32217;DHT22;67098;51.140;4.088;2023-04-01T07:58:06;11.40;99.90
32217;DHT22;67098;51.140;4.088;2023-04-01T08:06:26;11.50;99.90
32217;DHT22;67098;51.140;4.088;2023-04-01T08:11:59;11.70;99.90
32217;DHT22;67098;51.140;4.088;2023-04-01T08:14:50;11.80;99.90
32217;DHT22;67098;51.140;4.088;2023-04-01T08:17:20;11.80;99.90
32217;DHT22;67098;51.140;4.088;2023-04-01T08:20:18;11.90;99.90
32217;DHT22;67098;51.140;4.088;2023-04-01T08:22:51;11.90;99.90
32217;DHT22;67098;51.140;4.088;2023-04-01T08:25:23;12.00;99.90
32217;DHT22;67098;51.140;4.088;2023-04-01T08:28:35;12.00;99.90
32217;DHT22;67098;51.140;4.088;2023-04-01T08:31:23;12.10;99.90
32217;DHT22;67098;51.140;4.088;2023-04-01T08:33:53;12.10;99.90
32217;DHT22;67098;51.140;4.088;2023-04-01T08:36:36;12.20;99.90
32217;DHT22;67098;51.140;4.088;2023-04-01T08:39:39;12.40;99.90
32217;DHT22;67098;51.140;4.088;2023-04-01T08:42:07;12.40;99.90
32217;DHT22;67098;51.140;4.088;2023-04-01T09:01:26;12.60;99.90
32217;DHT22;67098;51.140;4.088;2023-04-01T09:14:54;12.90;99.90
32217;DHT22;67098;51.140;4.088;2023-04-01T09:26:05;12.90;99.90
32217;DHT22;67098;51.140;4.088;2023-04-01T09:34:35;12.90;99.90
32217;DHT22;67098;51.140;4.088;2023-04-01T09:37:35;13.00;99.90
32217;DHT22;67098;51.140;4.088;2023-04-01T09:40:18;13.00;99.90
32217;DHT22;67098;51.140;4.088;2023-04-01T09:45:44;12.90;99.90
32217;DHT22;67098;51.140;4.088;2023-04-01T09:51:48;12.90;99.90
32217;DHT22;67098;51.140;4.088;2023-04-01T09:57:22;12.70;99.90
32217;DHT22;67098;51.140;4.088;2023-04-01T10:18:46;13.90;99.90
32217;DHT22;67098;51.140;4.088;2023-04-01T10:38:10;13.20;99.50
32217;DHT22;67098;51.140;4.088;2023-04-01T10:52:48;13.20;99.80
32217;DHT22;67098;51.140;4.088;2023-04-01T11:17:53;13.40;99.50
32217;DHT22;67098;51.140;4.088;2023-04-01T11:25:27;13.40;99.10
32217;DHT22;67098;51.140;4.088;2023-04-01T11:30:49;13.40;99.60
32217;DHT22;67098;51.140;4.088;2023-04-01T11:41:41;13.50;99.10
32217;DHT22;67098;51.140;4.088;2023-04-01T11:44:22;13.50;99.40
32217;DHT22;67098;51.140;4.088;2023-04-01T11:49:44;13.60;98.80
32217;DHT22;67098;51.140;4.088;2023-04-01T11:52:17;13.60;98.90
32217;DHT22;67098;51.140;4.088;2023-04-01T12:05:48;13.70;99.20
32217;DHT22;67098;51.140;4.088;2023-04-01T12:19:51;13.70;98.60
32217;DHT22;67098;51.140;4.088;2023-04-01T12:22:36;13.60;99.10
32217;DHT22;67098;51.140;4.088;2023-04-01T12:25:19;13.60;98.70
32217;DHT22;67098;51.140;4.088;2023-04-01T12:33:35;13.50;99.10
32217;DHT22;67098;51.140;4.088;2023-04-01T12:39:13;13.80;99.60
32217;DHT22;67098;51.140;4.088;2023-04-01T12:47:44;13.90;98.40
32217;DHT22;67098;51.140;4.088;2023-04-01T12:50:34;13.90;98.70
32217;DHT22;67098;51.140;4.088;2023-04-01T12:56:02;14.00;98.40
32217;DHT22;67098;51.140;4.088;2023-04-01T12:58:45;14.10;98.60
32217;DHT22;67098;51.140;4.088;2023-04-01T13:04:09;14.20;97.90
32217;DHT22;67098;51.140;4.088;2023-04-01T13:15:24;14.00;97.90
32217;DHT22;67098;51.140;4.088;2023-04-01T13:18:16;14.00;98.10
32217;DHT22;67098;51.140;4.088;2023-04-01T13:29:41;13.60;98.50
32217;DHT22;67098;51.140;4.088;2023-04-01T13:32:23;13.60;98.60
32217;DHT22;67098;51.140;4.088;2023-04-01T13:35:03;13.80;98.10
32217;DHT22;67098;51.140;4.088;2023-04-01T13:37:55;13.80;97.90
32217;DHT22;67098;51.140;4.088;2023-04-01T13:43:24;14.00;98.10
32217;DHT22;67098;51.140;4.088;2023-04-01T14:05:35;13.80;97.60
32217;DHT22;67098;51.140;4.088;2023-04-01T14:08:10;13.70;97.50
32217;DHT22;67098;51.140;4.088;2023-04-01T14:10:49;13.50;97.80
32217;DHT22;67098;51.140;4.088;2023-04-01T14:13:34;13.70;97.80
32217;DHT22;67098;51.140;4.088;2023-04-01T14:21:43;13.70;98.10
32217;DHT22;67098;51.140;4.088;2023-04-01T14:48:35;13.90;97.10
32217;DHT22;67098;51.140;4.088;2023-04-01T14:59:01;13.70;97.50
32217;DHT22;67098;51.140;4.088;2023-04-01T15:12:46;13.40;97.50
32217;DHT22;67098;51.140;4.088;2023-04-01T15:15:47;13.30;97.70
32217;DHT22;67098;51.140;4.088;2023-04-01T15:20:55;13.30;98.50
32217;DHT22;67098;51.140;4.088;2023-04-01T15:43:06;12.10;99.90
32217;DHT22;67098;51.140;4.088;2023-04-01T15:50:48;12.40;99.90
32217;DHT22;67098;51.140;4.088;2023-04-01T15:53:21;12.50;99.90
32217;DHT22;67098;51.140;4.088;2023-04-01T16:12:57;12.60;99.90
32217;DHT22;67098;51.140;4.088;2023-04-01T16:24:22;12.50;99.90
32217;DHT22;67098;51.140;4.088;2023-04-01T16:27:04;12.50;99.90
32217;DHT22;67098;51.140;4.088;2023-04-01T16:43:43;12.50;99.90
32217;DHT22;67098;51.140;4.088;2023-04-01T16:54:35;12.50;99.90
32217;DHT22;67098;51.140;4.088;2023-04-01T17:04:49;12.50;99.90
32217;DHT22;67098;51.140;4.088;2023-04-01T17:07:44;12.50;99.90
32217;DHT22;67098;51.140;4.088;2023-04-01T17:18:28;12.40;99.90
32217;DHT22;67098;51.140;4.088;2023-04-01T17:21:13;12.40;99.90
32217;DHT22;67098;51.140;4.088;2023-04-01T17:23:52;12.40;99.90
32217;DHT22;67098;51.140;4.088;2023-04-01T17:26:30;12.30;99.90
32217;DHT22;67098;51.140;4.088;2023-04-01T17:32:11;12.30;99.90
32217;DHT22;67098;51.140;4.088;2023-04-01T17:35:17;12.40;99.90
32217;DHT22;67098;51.140;4.088;2023-04-01T17:40:50;12.30;99.90
32217;DHT22;67098;51.140;4.088;2023-04-01T17:58:01;12.20;99.90
32217;DHT22;67098;51.140;4.088;2023-04-01T18:03:19;12.00;99.90
32217;DHT22;67098;51.140;4.088;2023-04-01T18:08:40;11.90;99.90
32217;DHT22;67098;51.140;4.088;2023-04-01T18:11:20;12.10;99.90
32217;DHT22;67098;51.140;4.088;2023-04-01T18:16:58;12.00;99.90
32217;DHT22;67098;51.140;4.088;2023-04-01T18:19:52;12.00;99.90
32217;DHT22;67098;51.140;4.088;2023-04-01T18:25:10;12.00;99.90
32217;DHT22;67098;51.140;4.088;2023-04-01T18:28:08;11.90;99.90
32217;DHT22;67098;51.140;4.088;2023-04-01T18:30:35;11.80;99.90
32217;DHT22;67098;51.140;4.088;2023-04-01T18:33:18;11.90;99.90
32217;DHT22;67098;51.140;4.088;2023-04-01T18:36:03;11.90;99.90
32217;DHT22;67098;51.140;4.088;2023-04-01T18:38:38;11.90;99.90
32217;DHT22;67098;51.140;4.088;2023-04-01T18:41:16;12.00;99.90
32217;DHT22;67098;51.140;4.088;2023-04-01T18:44:04;11.90;99.90
32217;DHT22;67098;51.140;4.088;2023-04-01T18:46:54;11.90;99.90
32217;DHT22;67098;51.140;4.088;2023-04-01T18:52:34;11.70;99.90
32217;DHT22;67098;51.140;4.088;2023-04-01T18:57:46;11.50;99.90
32217;DHT22;67098;51.140;4.088;2023-04-01T19:00:49;11.50;99.90
32217;DHT22;67098;51.140;4.088;2023-04-01T19:03:20;11.50;99.90
32217;DHT22;67098;51.140;4.088;2023-04-01T19:05:49;11.50;99.90
32217;DHT22;67098;51.140;4.088;2023-04-01T19:13:36;11.50;99.90
32217;DHT22;67098;51.140;4.088;2023-04-01T19:16:12;11.50;99.90
32217;DHT22;67098;51.140;4.088;2023-04-01T19:18:52;11.60;99.90
32217;DHT22;67098;51.140;4.088;2023-04-01T19:21:34;11.60;99.90
32217;DHT22;67098;51.140;4.088;2023-04-01T19:26:48;11.50;99.90
32217;DHT22;67098;51.140;4.088;2023-04-01T19:32:06;11.60;99.90
32217;DHT22;67098;51.140;4.088;2023-04-01T19:34:40;11.50;99.90
32217;DHT22;67098;51.140;4.088;2023-04-01T19:41:00;11.70;99.90
32217;DHT22;67098;51.140;4.088;2023-04-01T19:43:38;11.70;99.90
32217;DHT22;67098;51.140;4.088;2023-04-01T19:46:16;11.60;99.90
32217;DHT22;67098;51.140;4.088;2023-04-01T20:00:37;11.80;99.90
32217;DHT22;67098;51.140;4.088;2023-04-01T20:11:44;11.70;99.90
32217;DHT22;67098;51.140;4.088;2023-04-01T20:20:20;11.70;99.90
32217;DHT22;67098;51.140;4.088;2023-04-01T20:36:40;11.90;99.90
32217;DHT22;67098;51.140;4.088;2023-04-01T20:42:20;11.80;99.90
32217;DHT22;67098;51.140;4.088;2023-04-01T20:50:21;12.00;99.90
32217;DHT22;67098;51.140;4.088;2023-04-01T20:53:15;12.00;99.90
32217;DHT22;67098;51.140;4.088;2023-04-01T20:58:42;11.90;99.90
32217;DHT22;67098;51.140;4.088;2023-04-01T21:04:14;12.00;99.90
32217;DHT22;67098;51.140;4.088;2023-04-01T21:15:16;12.00;99.90
32217;DHT22;67098;51.140;4.088;2023-04-01T21:18:01;12.00;99.90
32217;DHT22;67098;51.140;4.088;2023-04-01T21:20:54;11.90;99.90
32217;DHT22;67098;51.140;4.088;2023-04-01T21:26:12;12.10;99.90
32217;DHT22;67098;51.140;4.088;2023-04-01T21:34:49;12.10;99.90
32217;DHT22;67098;51.140;4.088;2023-04-01T21:51:31;11.80;99.90
32217;DHT22;67098;51.140;4.088;2023-04-01T21:54:28;11.90;99.90
32217;DHT22;67098;51.140;4.088;2023-04-01T22:00:09;11.80;99.90
32217;DHT22;67098;51.140;4.088;2023-04-01T22:08:39;11.90;99.90
32217;DHT22;67098;51.140;4.088;2023-04-01T22:13:49;12.00;99.90
32217;DHT22;67098;51.140;4.088;2023-04-01T22:18:55;12.00;99.90
32217;DHT22;67098;51.140;4.088;2023-04-01T22:21:29;12.00;99.90
32217;DHT22;67098;51.140;4.088;2023-04-01T22:32:16;11.80;99.90
32217;DHT22;67098;51.140;4.088;2023-04-01T22:34:49;11.80;99.90
32217;DHT22;67098;51.140;4.088;2023-04-01T22:37:27;11.90;99.90
32217;DHT22;67098;51.140;4.088;2023-04-01T22:42:48;11.80;99.90
32217;DHT22;67098;51.140;4.088;2023-04-01T22:45:21;11.80;99.90
32217;DHT22;67098;51.140;4.088;2023-04-01T22:53:27;11.70;99.90
32217;DHT22;67098;51.140;4.088;2023-04-01T22:55:59;11.80;99.90
32217;DHT22;67098;51.140;4.088;2023-04-01T22:58:34;11.80;99.90
32217;DHT22;67098;51.140;4.088;2023-04-01T23:01:06;11.80;99.90
32217;DHT22;67098;51.140;4.088;2023-04-01T23:03:35;11.90;99.90
32217;DHT22;67098;51.140;4.088;2023-04-01T23:06:04;11.70;99.90
32217;DHT22;67098;51.140;4.088;2023-04-01T23:08:43;11.50;99.90
32217;DHT22;67098;51.140;4.088;2023-04-01T23:11:18;11.70;99.90
32217;DHT22;67098;51.140;4.088;2023-04-01T23:14:04;11.60;99.90
32217;DHT22;67098;51.140;4.088;2023-04-01T23:16:39;11.40;99.90
32217;DHT22;67098;51.140;4.088;2023-04-01T23:19:11;11.40;99.90
32217;DHT22;67098;51.140;4.088;2023-04-01T23:21:46;11.60;99.90
32217;DHT22;67098;51.140;4.088;2023-04-01T23:24:35;11.40;99.90
32217;DHT22;67098;51.140;4.088;2023-04-01T23:27:21;11.30;99.90
32217;DHT22;67098;51.140;4.088;2023-04-01T23:29:48;11.30;99.90
32217;DHT22;67098;51.140;4.088;2023-04-01T23:32:18;11.40;99.90
32217;DHT22;67098;51.140;4.088;2023-04-01T23:34:49;11.30;99.90
32217;DHT22;67098;51.140;4.088;2023-04-01T23:37:17;11.20;99.90
32217;DHT22;67098;51.140;4.088;2023-04-01T23:39:55;11.10;99.90
32217;DHT22;67098;51.140;4.088;2023-04-01T23:42:32;11.20;99.90
32217;DHT22;67098;51.140;4.088;2023-04-01T23:45:15;11.20;99.90
32217;DHT22;67098;51.140;4.088;2023-04-01T23:47:48;11.20;99.90
32217;DHT22;67098;51.140;4.088;2023-04-01T23:50:20;11.20;99.90
32217;DHT22;67098;51.140;4.088;2023-04-01T23:52:49;11.00;99.90
32217;DHT22;67098;51.140;4.088;2023-04-01T23:55:22;11.00;99.90
